Bucyrus, Kansas
Current Conditions -  °F | °C
As of 3:53 AM on Friday 24 Oct 2014 (Local Time) from KOJC Reporting Station
Haze Haze  
Wind Chill: 56°   Ceiling: 200
Heat Index: 56°   Visibility: 1.5mi
Dew Point: 56°   Wind: 9mph
Humidity: 100%   Direction: 200°SSW
Pressure: 30.07"   Gusts: NA
Location:  38.73°N, 94.72°W
Report Text: KOJC 240853Z AUTO 20008KT 1 1/2SM BR OVC002 13/13 A3007 RMK AO2 SLP177 T01330133 58004
Loading
Personal Weather Stations






























Interactive Weather Map
Tropical Storm Tracking
New forecast layout! Learn more

10-Day Weather Forecast

Advertisements
Track Severe Weather on mobile